Terminal Aerodrome Forecast
Issued by NWS

Home | Current Version | Previous Version | Text Only | Print | Product List | Glossary On
Versions: 1 2 3 4 5 6 7 8 9 10 11 12 13 14 15 16 17 18 19 20 21 22 23 24
495
FTUS43 KAPX 221748 CCA
TAFMBL
TAF COR
KMBL 221748Z 2218/2318 19010G18KT P6SM SCT012 SCT150
      TEMPO 2218/2222 6SM BR BKN012
     FM222200 18009KT 5SM BR BKN012 OVC150
     FM230300 21010G19KT 1SM BR OVC003
     FM230500 23009KT 1/2SM FG BKN003
     FM230700 26008KT 3/4SM BR BKN003
     FM230800 30008KT 1SM BR BKN003
     FM231200 33009KT 5SM BR BKN010
     FM231300 34011G21KT P6SM BKN010
     FM231700 01012G22KT P6SM BKN015=

USA.gov is the U.S. government's official web portal to all federal, state and local government web resources and services.